createdAt,value
2019-02-10T00:00:50.297Z,1.60
2019-02-10T00:03:20.298Z,1.60
2019-02-10T00:05:51.953Z,1.60
2019-02-10T00:08:21.951Z,1.60
2019-02-10T00:10:52.242Z,1.60
2019-02-10T00:13:31.420Z,1.60
2019-02-10T00:16:03.293Z,1.50
2019-02-10T00:18:33.266Z,1.40
2019-02-10T00:21:03.361Z,1.30
2019-02-10T00:23:33.425Z,1.30
2019-02-10T00:26:07.458Z,1.30
2019-02-10T00:28:37.477Z,1.40
2019-02-10T00:31:08.742Z,1.50
2019-02-10T00:33:38.738Z,1.50
2019-02-10T00:36:08.812Z,1.40
2019-02-10T00:38:38.848Z,1.40
2019-02-10T00:41:08.921Z,1.30
2019-02-10T00:43:42.875Z,1.30
2019-02-10T00:46:15.388Z,1.20
2019-02-10T00:48:48.235Z,1.20
2019-02-10T00:51:18.339Z,1.00
2019-02-10T00:53:48.350Z,1.00
2019-02-10T00:56:18.347Z,1.10
2019-02-10T00:58:50.673Z,1.10
2019-02-10T01:01:21.962Z,1.10
2019-02-10T01:03:51.947Z,1.10
2019-02-10T01:06:24.805Z,1.10
2019-02-10T01:08:57.897Z,1.20
2019-02-10T01:11:27.913Z,1.20
2019-02-10T01:14:03.913Z,1.20
2019-02-10T01:16:34.000Z,1.20
2019-02-10T01:19:13.899Z,1.20
2019-02-10T01:21:48.117Z,1.20
2019-02-10T01:24:18.614Z,1.20
2019-02-10T01:26:51.840Z,1.20
2019-02-10T01:29:24.667Z,1.30
2019-02-10T01:31:57.735Z,1.20
2019-02-10T01:34:30.500Z,1.10
2019-02-10T01:37:02.210Z,1.00
2019-02-10T01:39:35.150Z,1.00
2019-02-10T01:42:08.139Z,1.10
2019-02-10T01:44:38.389Z,1.10
2019-02-10T01:47:11.148Z,1.00
2019-02-10T01:49:41.108Z,1.00
2019-02-10T01:52:11.190Z,0.90
2019-02-10T01:54:45.788Z,0.80
2019-02-10T01:57:16.876Z,0.70
2019-02-10T01:59:46.876Z,0.70
2019-02-10T02:02:19.553Z,0.80
2019-02-10T02:04:49.611Z,0.70
2019-02-10T02:07:21.066Z,0.60
2019-02-10T02:09:51.215Z,0.60
2019-02-10T02:12:21.216Z,0.60
2019-02-10T02:14:51.204Z,0.50
2019-02-10T02:17:24.462Z,0.40
2019-02-10T02:19:55.624Z,0.30
2019-02-10T02:22:27.155Z,0.30
2019-02-10T02:24:57.246Z,0.20
2019-02-10T02:27:30.295Z,0.20
2019-02-10T02:30:08.250Z,0.20
2019-02-10T02:32:38.259Z,0.20
2019-02-10T02:35:10.342Z,0.20
2019-02-10T02:37:40.343Z,0.30
2019-02-10T02:40:14.933Z,0.30
2019-02-10T02:42:45.026Z,0.30
2019-02-10T02:45:16.127Z,0.20
2019-02-10T02:47:47.841Z,0.20
2019-02-10T02:50:19.557Z,0.20
2019-02-10T02:52:49.579Z,0.20
2019-02-10T02:55:20.868Z,0.20
2019-02-10T02:57:51.298Z,0.30
2019-02-10T03:00:21.342Z,0.30
2019-02-10T03:02:53.336Z,0.20
2019-02-10T03:05:24.356Z,0.20
2019-02-10T03:07:54.366Z,0.20
2019-02-10T03:10:24.367Z,0.20
2019-02-10T03:12:57.228Z,0.20
2019-02-10T03:15:28.252Z,0.20
2019-02-10T03:17:59.603Z,0.10
2019-02-10T03:20:29.639Z,0.00
2019-02-10T03:22:59.634Z,0.10
2019-02-10T03:25:29.763Z,0.20
2019-02-10T03:28:02.763Z,0.30
2019-02-10T03:30:32.829Z,0.40
2019-02-10T03:33:02.982Z,0.30
2019-02-10T03:35:33.168Z,0.20
2019-02-10T03:38:06.573Z,0.10
2019-02-10T03:40:37.619Z,-0.10
2019-02-10T03:43:07.673Z,0.10
2019-02-10T03:45:39.306Z,0.20
2019-02-10T03:48:09.424Z,0.20
2019-02-10T03:50:40.878Z,0.20
2019-02-10T03:53:14.329Z,0.20
2019-02-10T03:55:44.381Z,0.10
2019-02-10T03:58:14.357Z,0.10
2019-02-10T04:00:46.756Z,0.10
2019-02-10T04:03:16.782Z,0.00
2019-02-10T04:05:46.773Z,-0.10
2019-02-10T04:08:18.193Z,0.10
2019-02-10T04:10:49.544Z,0.20
2019-02-10T04:13:25.792Z,0.30
2019-02-10T04:15:53.047Z,0.30
2019-02-10T04:18:24.765Z,0.30
2019-02-10T04:20:56.444Z,0.20
2019-02-10T04:23:26.499Z,0.20
2019-02-10T04:25:56.567Z,0.20
2019-02-10T04:28:28.492Z,0.10
2019-02-10T04:30:58.582Z,0.10
2019-02-10T04:33:31.454Z,0.10
2019-02-10T04:36:01.556Z,0.10
2019-02-10T04:38:31.628Z,0.10
2019-02-10T04:41:01.966Z,0.00
2019-02-10T04:43:33.151Z,0.00
2019-02-10T04:46:03.196Z,0.00
2019-02-10T04:48:33.181Z,0.00
2019-02-10T04:51:06.316Z,-0.10
2019-02-10T04:53:37.946Z,-0.20
2019-02-10T04:56:17.381Z,-0.20
2019-02-10T04:58:48.898Z,-0.30
2019-02-10T05:01:20.166Z,-0.40
2019-02-10T05:03:56.641Z,-0.30
2019-02-10T05:06:21.948Z,-0.30
2019-02-10T05:08:53.166Z,-0.20
2019-02-10T05:11:24.285Z,-0.30
2019-02-10T05:13:54.399Z,-0.40
2019-02-10T05:16:26.045Z,-0.40
2019-02-10T05:18:57.870Z,-0.30
2019-02-10T05:21:27.851Z,-0.20
2019-02-10T05:24:03.539Z,-0.20
2019-02-10T05:26:31.418Z,-0.30
2019-02-10T05:29:04.646Z,-0.40
2019-02-10T05:31:39.628Z,-0.30
2019-02-10T05:34:12.246Z,-0.30
2019-02-10T05:36:43.606Z,-0.30
2019-02-10T05:39:13.643Z,-0.30
2019-02-10T05:41:43.778Z,-0.30
2019-02-10T05:44:16.887Z,-0.40
2019-02-10T05:46:48.199Z,-0.50
2019-02-10T05:49:19.555Z,-0.40
2019-02-10T05:51:50.649Z,-0.50
2019-02-10T05:54:20.648Z,-0.50
2019-02-10T05:56:50.794Z,-0.50
2019-02-10T05:59:23.442Z,-0.60
2019-02-10T06:02:07.174Z,-0.70
2019-02-10T06:04:41.173Z,-0.80
2019-02-10T06:07:17.087Z,-0.90
2019-02-10T06:09:49.105Z,-0.90
2019-02-10T06:12:18.931Z,-1.00
2019-02-10T06:14:49.077Z,-1.00
2019-02-10T06:17:20.333Z,-0.90
2019-02-10T06:19:51.576Z,-1.00
2019-02-10T06:22:22.962Z,-1.00
2019-02-10T06:24:54.600Z,-0.70
2019-02-10T06:27:27.807Z,-0.50
2019-02-10T06:29:57.521Z,-0.50
2019-02-10T06:32:27.598Z,-0.50
2019-02-10T06:35:01.727Z,-0.30
2019-02-10T06:37:31.781Z,-0.20
2019-02-10T06:40:04.301Z,-0.10
2019-02-10T06:42:34.858Z,0.10
2019-02-10T06:45:10.190Z,0.20
2019-02-10T06:47:41.209Z,0.20
2019-02-10T06:50:11.594Z,0.10
2019-02-10T06:52:41.605Z,0.10
2019-02-10T06:55:16.244Z,0.10
2019-02-10T06:57:49.195Z,0.20
2019-02-10T07:00:36.692Z,0.50
2019-02-10T07:03:48.410Z,0.60
2019-02-10T07:06:18.000Z,0.80
2019-02-10T07:08:48.138Z,1.10
2019-02-10T07:11:20.939Z,1.40
2019-02-10T07:13:54.378Z,1.90
2019-02-10T07:16:56.995Z,2.40
2019-02-10T07:20:06.894Z,3.10
2019-02-10T07:23:20.956Z,4.40
2019-02-10T07:25:59.790Z,5.90
2019-02-10T07:29:25.162Z,7.20
2019-02-10T07:32:01.691Z,8.40
2019-02-10T07:35:11.764Z,9.90
2019-02-10T07:37:54.000Z,11.00
2019-02-10T07:41:14.944Z,12.10
2019-02-10T07:44:36.766Z,12.90
2019-02-10T07:47:58.155Z,13.90
2019-02-10T07:50:56.456Z,14.90
2019-02-10T07:54:01.374Z,16.60
2019-02-10T07:57:31.720Z,18.20
2019-02-10T08:00:37.620Z,19.30
2019-02-10T08:03:55.891Z,20.40
2019-02-10T08:06:51.717Z,21.30
2019-02-10T08:09:59.855Z,21.10
2019-02-10T08:13:01.224Z,20.90
2019-02-10T08:15:49.235Z,20.60
2019-02-10T08:18:49.672Z,19.50
2019-02-10T08:21:49.239Z,18.60
2019-02-10T08:24:47.349Z,17.70
2019-02-10T08:27:34.258Z,17.60
2019-02-10T08:30:25.915Z,18.80
2019-02-10T08:33:17.454Z,19.10
2019-02-10T08:36:16.809Z,20.20
2019-02-10T08:39:21.050Z,20.70
2019-02-10T08:42:31.143Z,23.30
2019-02-10T08:45:35.264Z,25.40
2019-02-10T08:48:48.510Z,27.00
2019-02-10T08:52:01.527Z,25.70
2019-02-10T08:54:31.582Z,24.30
2019-02-10T08:57:01.583Z,21.80
2019-02-10T08:59:31.835Z,21.20
2019-02-10T09:02:01.914Z,21.40
2019-02-10T09:04:31.990Z,22.80
2019-02-10T09:07:02.109Z,21.80
2019-02-10T09:09:32.186Z,20.20
2019-02-10T09:12:02.270Z,19.10
2019-02-10T09:14:32.420Z,18.20
2019-02-10T09:17:02.512Z,17.50
2019-02-10T09:19:32.598Z,18.60
2019-02-10T09:22:02.754Z,20.90
2019-02-10T09:24:32.860Z,22.90
2019-02-10T09:27:02.932Z,23.80
2019-02-10T09:29:33.002Z,20.40
2019-02-10T09:32:03.558Z,19.50
2019-02-10T09:34:34.876Z,20.30
2019-02-10T09:37:05.102Z,21.30
2019-02-10T09:39:35.243Z,22.00
2019-02-10T09:42:05.284Z,22.40
2019-02-10T09:44:37.086Z,22.10
2019-02-10T09:47:07.178Z,21.40
2019-02-10T09:49:37.359Z,20.90
2019-02-10T09:52:07.381Z,21.30
2019-02-10T09:54:37.456Z,21.40
2019-02-10T09:57:07.558Z,22.70
2019-02-10T09:59:37.680Z,23.10
2019-02-10T10:02:07.794Z,23.10
2019-02-10T10:04:38.149Z,23.40
2019-02-10T10:07:08.346Z,23.10
2019-02-10T10:09:38.521Z,21.50
2019-02-10T10:12:08.643Z,19.10
2019-02-10T10:14:38.778Z,18.10
2019-02-10T10:17:08.932Z,18.30
2019-02-10T10:19:39.057Z,18.30
2019-02-10T10:22:09.249Z,18.10
2019-02-10T10:24:39.434Z,18.40
2019-02-10T10:27:09.547Z,18.60
2019-02-10T10:29:39.546Z,18.60
2019-02-10T10:32:09.811Z,18.80
2019-02-10T10:34:40.341Z,18.20
2019-02-10T10:37:10.489Z,18.50
2019-02-10T10:39:40.665Z,17.90
2019-02-10T10:42:10.896Z,16.60
2019-02-10T10:44:41.113Z,16.00
2019-02-10T10:47:11.329Z,15.60
2019-02-10T10:49:41.508Z,15.40
2019-02-10T10:52:11.659Z,15.30
2019-02-10T10:54:43.034Z,14.90
2019-02-10T10:57:13.339Z,14.90
2019-02-10T10:59:43.477Z,15.00
2019-02-10T11:02:14.151Z,14.40
2019-02-10T11:04:44.445Z,13.90
2019-02-10T11:07:14.588Z,13.00
2019-02-10T11:09:44.786Z,13.20
2019-02-10T11:12:16.016Z,13.90
2019-02-10T11:14:49.007Z,13.50
2019-02-10T11:17:19.219Z,13.50
2019-02-10T11:19:49.353Z,13.90
2019-02-10T11:22:19.518Z,14.50
2019-02-10T11:24:49.658Z,14.80
2019-02-10T11:27:19.806Z,14.10
2019-02-10T11:29:49.912Z,12.30
2019-02-10T11:32:19.988Z,11.80
2019-02-10T11:34:50.022Z,11.20
2019-02-10T11:37:26.754Z,10.60
2019-02-10T11:39:51.980Z,10.30
2019-02-10T11:42:22.206Z,10.50
2019-02-10T11:44:52.355Z,11.00
2019-02-10T11:47:22.881Z,10.90
2019-02-10T11:49:52.991Z,10.20
2019-02-10T11:52:24.249Z,9.50
2019-02-10T11:54:54.430Z,9.30
2019-02-10T11:57:24.651Z,9.40
2019-02-10T11:59:54.826Z,9.50
2019-02-10T12:02:25.053Z,9.70
2019-02-10T12:04:58.165Z,10.10
2019-02-10T12:07:29.478Z,10.20
2019-02-10T12:09:59.684Z,10.00
2019-02-10T12:12:29.802Z,10.00
2019-02-10T12:15:00.032Z,9.90
2019-02-10T12:17:30.256Z,10.00
2019-02-10T12:20:00.315Z,10.30
2019-02-10T12:22:30.554Z,10.80
2019-02-10T12:25:00.685Z,10.80
2019-02-10T12:27:30.815Z,10.60
2019-02-10T12:30:03.213Z,10.80
2019-02-10T12:32:34.443Z,10.50
2019-02-10T12:35:09.277Z,10.50
2019-02-10T12:37:40.900Z,10.30
2019-02-10T12:40:11.773Z,10.10
2019-02-10T12:42:41.994Z,10.00
2019-02-10T12:45:12.431Z,9.80
2019-02-10T12:47:42.561Z,9.90
2019-02-10T12:50:20.421Z,10.00
2019-02-10T12:52:51.745Z,10.00
2019-02-10T12:55:23.071Z,9.90
2019-02-10T12:57:53.208Z,9.90
2019-02-10T13:00:23.336Z,10.00
2019-02-10T13:02:53.545Z,10.00
2019-02-10T13:05:25.977Z,10.00
2019-02-10T13:07:57.623Z,10.20
2019-02-10T13:10:30.162Z,10.30
2019-02-10T13:13:00.809Z,10.40
2019-02-10T13:15:31.033Z,10.60
2019-02-10T13:18:02.850Z,10.90
2019-02-10T13:20:32.978Z,11.10
2019-02-10T13:23:03.221Z,11.20
2019-02-10T13:25:33.400Z,11.30
2019-02-10T13:28:03.886Z,11.50
2019-02-10T13:30:38.316Z,11.50
2019-02-10T13:33:08.535Z,11.10
2019-02-10T13:35:42.175Z,11.10
2019-02-10T13:38:14.659Z,11.20
2019-02-10T13:40:44.914Z,11.10
2019-02-10T13:43:16.698Z,11.30
2019-02-10T13:45:50.471Z,11.40
2019-02-10T13:48:20.600Z,11.60
2019-02-10T13:50:53.089Z,11.90
2019-02-10T13:53:23.766Z,12.20
2019-02-10T13:55:55.002Z,12.00
2019-02-10T13:58:25.195Z,11.80
2019-02-10T14:00:55.519Z,11.50
2019-02-10T14:03:26.744Z,11.20
2019-02-10T14:05:56.916Z,11.00
2019-02-10T14:08:27.134Z,11.00
2019-02-10T14:11:01.195Z,10.90
2019-02-10T14:13:31.433Z,10.70
2019-02-10T14:16:01.702Z,10.60
2019-02-10T14:18:34.729Z,10.60
2019-02-10T14:21:04.995Z,10.60
2019-02-10T14:23:38.541Z,10.60
2019-02-10T14:26:12.191Z,10.60
2019-02-10T14:28:42.659Z,10.70
2019-02-10T14:31:12.896Z,10.60
2019-02-10T14:33:46.430Z,10.80
2019-02-10T14:36:16.860Z,11.10
2019-02-10T14:38:47.035Z,11.30
2019-02-10T14:41:19.778Z,11.50
2019-02-10T14:43:53.011Z,11.60
2019-02-10T14:46:25.566Z,11.70
2019-02-10T14:48:58.640Z,11.70
2019-02-10T14:51:30.539Z,11.70
2019-02-10T14:54:00.788Z,11.60
2019-02-10T14:56:32.305Z,11.50
2019-02-10T14:59:04.151Z,11.40
2019-02-10T15:01:34.398Z,11.30
2019-02-10T15:04:07.893Z,11.30
2019-02-10T15:06:37.846Z,11.20
2019-02-10T15:09:15.167Z,11.30
2019-02-10T15:11:45.398Z,11.20
2019-02-10T15:14:18.124Z,11.10
2019-02-10T15:16:48.332Z,11.00
2019-02-10T15:19:22.647Z,10.90
2019-02-10T15:21:53.502Z,10.90
2019-02-10T15:24:24.438Z,10.90
2019-02-10T15:26:56.531Z,11.00
2019-02-10T15:29:31.474Z,11.10
2019-02-10T15:32:05.508Z,11.10
2019-02-10T15:34:40.623Z,11.10
2019-02-10T15:37:16.086Z,11.00
2019-02-10T15:39:46.659Z,10.90
2019-02-10T15:42:24.091Z,10.70
2019-02-10T15:44:56.253Z,10.40
2019-02-10T15:47:30.703Z,9.80
2019-02-10T15:50:04.523Z,9.50
2019-02-10T15:52:36.846Z,9.20
2019-02-10T15:55:11.988Z,9.00
2019-02-10T15:57:42.912Z,8.80
2019-02-10T16:00:20.065Z,8.60
2019-02-10T16:02:53.944Z,8.30
2019-02-10T16:05:26.422Z,8.20
2019-02-10T16:08:00.958Z,8.10
2019-02-10T16:10:31.551Z,7.90
2019-02-10T16:13:01.803Z,7.80
2019-02-10T16:15:34.352Z,7.70
2019-02-10T16:18:04.622Z,7.80
2019-02-10T16:20:35.027Z,7.60
2019-02-10T16:23:07.485Z,7.50
2019-02-10T16:25:38.164Z,7.50
2019-02-10T16:28:10.190Z,7.50
2019-02-10T16:30:43.818Z,7.50
2019-02-10T16:33:14.302Z,7.40
2019-02-10T16:35:48.372Z,7.40
2019-02-10T16:38:21.091Z,7.20
2019-02-10T16:40:50.904Z,7.20
2019-02-10T16:43:21.325Z,7.10
2019-02-10T16:45:52.023Z,7.00
2019-02-10T16:48:22.643Z,6.90
2019-02-10T16:50:53.667Z,6.80
2019-02-10T16:53:26.763Z,6.80
2019-02-10T16:55:58.483Z,6.90
2019-02-10T16:58:29.935Z,6.80
2019-02-10T17:01:02.154Z,6.80
2019-02-10T17:03:33.648Z,6.70
2019-02-10T17:06:06.469Z,6.60
2019-02-10T17:08:39.291Z,6.60
2019-02-10T17:11:14.674Z,6.60
2019-02-10T17:13:48.870Z,6.60
2019-02-10T17:16:22.681Z,6.60
2019-02-10T17:18:58.864Z,6.60
2019-02-10T17:21:34.512Z,6.70
2019-02-10T17:24:07.673Z,6.70
2019-02-10T17:26:41.168Z,6.70
2019-02-10T17:29:15.834Z,6.80
2019-02-10T17:31:48.838Z,6.90
2019-02-10T17:34:19.642Z,6.70
2019-02-10T17:37:01.701Z,6.50
2019-02-10T17:39:37.655Z,6.50
2019-02-10T17:42:05.040Z,6.70
2019-02-10T17:44:36.370Z,6.90
2019-02-10T17:47:07.627Z,6.90
2019-02-10T17:49:38.400Z,7.00
2019-02-10T17:52:12.780Z,7.00
2019-02-10T17:54:44.030Z,7.10
2019-02-10T17:57:15.444Z,7.20
2019-02-10T17:59:48.052Z,7.10
2019-02-10T18:02:19.387Z,7.10
2019-02-10T18:04:51.151Z,7.00
2019-02-10T18:07:28.800Z,7.00
2019-02-10T18:10:01.525Z,7.00
2019-02-10T18:12:40.706Z,6.90
2019-02-10T18:15:29.907Z,6.80
2019-02-10T18:18:27.113Z,6.80
2019-02-10T18:21:21.850Z,6.70
2019-02-10T18:24:11.013Z,6.60
2019-02-10T18:27:03.567Z,6.30
2019-02-10T18:29:53.590Z,6.30
2019-02-10T18:32:33.793Z,6.20
2019-02-10T18:35:29.168Z,6.10
2019-02-10T18:38:25.014Z,6.00
2019-02-10T18:41:16.187Z,5.90
2019-02-10T18:44:17.537Z,6.10
2019-02-10T18:47:19.679Z,6.40
2019-02-10T18:49:58.413Z,6.60
2019-02-10T18:52:51.622Z,6.70
2019-02-10T18:55:48.127Z,6.70
2019-02-10T18:58:36.963Z,6.80
2019-02-10T19:01:43.160Z,6.70
2019-02-10T19:04:31.310Z,6.50
2019-02-10T19:07:18.485Z,6.20
2019-02-10T19:10:17.163Z,5.90
2019-02-10T19:13:12.915Z,5.50
2019-02-10T19:15:58.185Z,5.30
2019-02-10T19:18:55.603Z,5.00
2019-02-10T19:21:44.494Z,4.90
2019-02-10T19:24:38.665Z,4.80
2019-02-10T19:27:20.622Z,4.70
2019-02-10T19:30:17.917Z,4.60
2019-02-10T19:33:01.956Z,4.50
2019-02-10T19:36:01.500Z,4.50
2019-02-10T19:38:47.915Z,4.40
2019-02-10T19:41:41.466Z,4.20
2019-02-10T19:44:46.450Z,4.10
2019-02-10T19:47:37.406Z,4.00
2019-02-10T19:50:39.116Z,4.00
2019-02-10T19:53:19.886Z,3.90
2019-02-10T19:56:06.176Z,3.90
2019-02-10T19:58:45.325Z,4.00
2019-02-10T20:01:36.710Z,4.10
2019-02-10T20:04:25.219Z,4.10
2019-02-10T20:07:21.897Z,4.10
2019-02-10T20:10:03.248Z,4.10
2019-02-10T20:12:56.150Z,4.20
2019-02-10T20:15:57.655Z,4.20
2019-02-10T20:19:05.565Z,4.10
2019-02-10T20:22:01.050Z,4.10
2019-02-10T20:24:49.906Z,4.10
2019-02-10T20:27:38.037Z,4.10
2019-02-10T20:30:30.397Z,4.10
2019-02-10T20:33:32.338Z,4.20
2019-02-10T20:36:23.123Z,4.20
2019-02-10T20:39:12.583Z,4.20
2019-02-10T20:42:12.060Z,4.20
2019-02-10T20:44:57.995Z,4.20
2019-02-10T20:47:53.233Z,4.30
2019-02-10T20:50:43.536Z,4.30
2019-02-10T20:53:47.508Z,4.30
2019-02-10T20:56:34.511Z,4.20
2019-02-10T20:59:21.697Z,4.20
2019-02-10T21:01:59.799Z,4.20
2019-02-10T21:05:10.162Z,4.10
2019-02-10T21:08:01.294Z,4.10
2019-02-10T21:10:41.363Z,4.10
2019-02-10T21:13:42.570Z,4.10
2019-02-10T21:16:44.064Z,4.10
2019-02-10T21:19:32.954Z,4.10
2019-02-10T21:22:25.492Z,4.00
2019-02-10T21:25:10.542Z,4.10
2019-02-10T21:27:56.656Z,4.10
2019-02-10T21:30:41.793Z,4.10
2019-02-10T21:33:46.446Z,4.10
2019-02-10T21:36:38.786Z,4.00
2019-02-10T21:39:16.401Z,4.10
2019-02-10T21:42:05.843Z,4.10
2019-02-10T21:45:12.495Z,4.10
2019-02-10T21:47:53.388Z,4.10
2019-02-10T21:50:23.601Z,4.10
2019-02-10T21:52:53.823Z,4.10
2019-02-10T21:55:23.989Z,4.10
2019-02-10T21:57:57.965Z,4.00
2019-02-10T22:00:28.687Z,3.90
2019-02-10T22:02:58.919Z,3.90
2019-02-10T22:05:29.129Z,3.90
2019-02-10T22:08:02.345Z,3.90
2019-02-10T22:10:34.487Z,3.90
2019-02-10T22:13:11.224Z,4.00
2019-02-10T22:15:41.345Z,4.00
2019-02-10T22:18:13.650Z,3.90
2019-02-10T22:20:49.642Z,3.90
2019-02-10T22:23:20.779Z,3.90
2019-02-10T22:25:53.332Z,3.80
2019-02-10T22:28:23.608Z,3.80
2019-02-10T22:30:55.502Z,3.90
2019-02-10T22:33:28.016Z,3.90
2019-02-10T22:35:58.176Z,3.90
2019-02-10T22:38:28.162Z,3.90
2019-02-10T22:40:58.156Z,3.80
2019-02-10T22:43:28.206Z,3.90
2019-02-10T22:45:59.760Z,3.80
2019-02-10T22:48:29.827Z,3.90
2019-02-10T22:50:59.940Z,3.90
2019-02-10T22:53:30.916Z,3.80
2019-02-10T22:56:00.978Z,3.90
2019-02-10T22:58:32.651Z,4.00
2019-02-10T23:01:05.504Z,4.10
2019-02-10T23:03:39.449Z,4.10
2019-02-10T23:06:11.626Z,4.10
2019-02-10T23:08:41.674Z,4.10
2019-02-10T23:11:14.846Z,4.10
2019-02-10T23:13:51.093Z,4.10
2019-02-10T23:16:21.171Z,4.20
2019-02-10T23:18:51.242Z,4.30
2019-02-10T23:21:21.257Z,4.30
2019-02-10T23:23:52.738Z,4.30
2019-02-10T23:26:24.080Z,4.30
2019-02-10T23:28:56.683Z,4.30
2019-02-10T23:31:28.061Z,4.30
2019-02-10T23:33:58.176Z,4.30
2019-02-10T23:36:29.919Z,4.20
2019-02-10T23:38:59.928Z,4.20
2019-02-10T23:41:29.907Z,4.20
2019-02-10T23:43:59.889Z,4.20
2019-02-10T23:46:31.522Z,4.20
2019-02-10T23:49:01.635Z,4.20
2019-02-10T23:51:32.982Z,4.30
2019-02-10T23:54:04.145Z,4.30
2019-02-10T23:56:34.279Z,4.30
2019-02-10T23:59:07.355Z,4.30
